createdAt,value
2023-03-28T16:11:57.698Z,28.72
2023-03-28T16:12:09.696Z,28.92
2023-03-28T16:12:18.788Z,28.63
2023-03-28T16:12:28.966Z,28.33
2023-03-28T16:12:39.018Z,28.14
2023-03-28T16:12:49.084Z,28.23
2023-03-28T16:12:59.287Z,28.34
2023-03-28T16:13:18.616Z,28.45
2023-03-28T16:13:30.067Z,28.56
2023-03-28T16:13:40.082Z,28.56
2023-03-28T16:13:50.253Z,28.77
2023-03-28T16:14:00.352Z,28.98
2023-03-28T16:14:10.231Z,29.08
2023-03-28T16:14:20.401Z,29.18
2023-03-28T16:14:30.617Z,29.18
2023-03-28T16:14:40.643Z,29.18
2023-03-28T16:14:50.938Z,29.28
2023-03-28T16:15:02.043Z,29.28
2023-03-28T16:15:11.165Z,29.28
2023-03-28T16:15:21.239Z,29.39
2023-03-28T16:15:31.393Z,29.39
2023-03-28T16:15:41.475Z,29.40
2023-03-28T16:15:51.766Z,29.40
2023-03-28T16:16:11.891Z,29.81
2023-03-28T16:16:22.942Z,29.91
2023-03-28T16:16:32.138Z,29.91
2023-03-28T16:16:42.213Z,30.01
2023-03-28T16:16:52.449Z,30.01
2023-03-28T16:17:02.495Z,30.01
2023-03-28T16:17:12.718Z,29.81
2023-03-28T16:17:23.833Z,29.91
2023-03-28T16:17:32.943Z,29.71
2023-03-28T16:17:43.866Z,29.71
2023-03-28T16:17:53.150Z,29.81
2023-03-28T16:18:03.287Z,29.91
2023-03-28T16:18:13.399Z,29.81
2023-03-28T16:18:24.260Z,29.71
2023-03-28T16:18:33.641Z,29.81
2023-03-28T16:18:44.675Z,29.81
2023-03-28T16:18:54.424Z,29.81
2023-03-28T16:19:04.054Z,29.91
2023-03-28T16:19:14.171Z,29.91
2023-03-28T16:19:24.263Z,29.81
2023-03-28T16:19:34.309Z,29.81
2023-03-28T16:19:55.338Z,29.81
2023-03-28T16:20:04.696Z,29.91
2023-03-28T16:20:14.892Z,29.91
2023-03-28T16:20:24.957Z,30.01
2023-03-28T16:20:35.027Z,30.11
2023-03-28T16:20:45.155Z,30.01
2023-03-28T16:21:05.415Z,29.82
2023-03-28T16:21:15.671Z,29.82
2023-03-28T16:21:25.611Z,29.93
2023-03-28T16:21:35.870Z,29.93
2023-03-28T16:21:46.070Z,29.82
2023-03-28T16:21:57.890Z,29.82
2023-03-28T16:22:06.229Z,29.82
2023-03-28T16:22:16.386Z,29.93
2023-03-28T16:22:26.586Z,29.93
2023-03-28T16:22:36.542Z,29.93
2023-03-28T16:22:46.802Z,29.82
2023-03-28T16:22:56.852Z,29.73
2023-03-28T16:23:07.061Z,29.73
2023-03-28T16:23:17.043Z,29.73
2023-03-28T16:23:27.121Z,29.63
2023-03-28T16:23:37.499Z,29.63
2023-03-28T16:23:47.281Z,29.63
2023-03-28T16:23:57.514Z,29.83
2023-03-28T16:24:07.908Z,30.13
2023-03-28T16:24:18.785Z,30.13
2023-03-28T16:24:27.808Z,29.93
2023-03-28T16:24:38.063Z,29.72
2023-03-28T16:24:48.099Z,29.61
2023-03-28T16:24:58.176Z,29.61
2023-03-28T16:25:08.289Z,29.72
2023-03-28T16:25:19.450Z,29.61
2023-03-28T16:25:28.594Z,29.61
2023-03-28T16:25:38.699Z,29.52
2023-03-28T16:25:48.937Z,29.52
2023-03-28T16:25:58.990Z,29.52
2023-03-28T16:26:09.009Z,29.72
2023-03-28T16:26:29.254Z,29.72
2023-03-28T16:26:39.624Z,29.72
2023-03-28T16:26:49.564Z,29.82
2023-03-28T16:26:59.755Z,30.02
2023-03-28T16:27:09.699Z,30.13
2023-03-28T16:27:19.815Z,30.13
2023-03-28T16:27:30.033Z,30.32
2023-03-28T16:27:40.188Z,30.32
2023-03-28T16:27:50.452Z,30.22
2023-03-28T16:28:00.341Z,30.11
2023-03-28T16:28:10.456Z,29.81
2023-03-28T16:28:20.448Z,29.81
2023-03-28T16:28:31.520Z,29.81
2023-03-28T16:28:40.901Z,30.22
2023-03-28T16:28:50.840Z,30.32
2023-03-28T16:29:00.945Z,30.30
2023-03-28T16:29:11.125Z,30.30
2023-03-28T16:29:21.242Z,30.00
2023-03-28T16:29:31.627Z,29.69
2023-03-28T16:29:41.588Z,29.59
2023-03-28T16:29:51.656Z,29.59
2023-03-28T16:30:02.483Z,29.69
2023-03-28T16:30:12.096Z,29.59
2023-03-28T16:30:22.076Z,29.49
2023-03-28T16:30:32.167Z,29.49
2023-03-28T16:30:42.421Z,29.49
2023-03-28T16:30:52.761Z,29.59
2023-03-28T16:31:12.696Z,29.78
2023-03-28T16:31:22.809Z,29.88
2023-03-28T16:31:33.749Z,29.78
2023-03-28T16:31:43.398Z,29.88
2023-03-28T16:31:53.283Z,30.19
2023-03-28T16:32:03.290Z,30.19
2023-03-28T16:32:13.354Z,29.87
2023-03-28T16:32:23.619Z,29.87
2023-03-28T16:32:44.031Z,29.77
2023-03-28T16:32:53.945Z,29.65
2023-03-28T16:33:04.012Z,29.55
2023-03-28T16:33:14.075Z,29.35
2023-03-28T16:33:24.176Z,29.24
2023-03-28T16:33:34.294Z,29.14
2023-03-28T16:33:44.373Z,29.04
2023-03-28T16:33:54.404Z,29.05
2023-03-28T16:34:06.014Z,29.05
2023-03-28T16:34:14.652Z,29.05
2023-03-28T16:34:24.770Z,29.16
2023-03-28T16:34:34.979Z,29.36
2023-03-28T16:34:45.098Z,29.56
2023-03-28T16:34:55.200Z,29.66
2023-03-28T16:35:05.273Z,29.25
2023-03-28T16:35:15.546Z,29.25
2023-03-28T16:35:25.616Z,29.36
2023-03-28T16:35:35.728Z,29.56
2023-03-28T16:35:45.803Z,29.97
2023-03-28T16:35:56.015Z,30.07
2023-03-28T16:36:06.147Z,30.38
2023-03-28T16:36:16.029Z,30.48
2023-03-28T16:36:26.208Z,30.48
2023-03-28T16:36:36.336Z,30.16
2023-03-28T16:36:46.465Z,30.06
2023-03-28T16:36:56.724Z,29.85
2023-03-28T16:37:06.808Z,29.75
2023-03-28T16:37:16.879Z,29.35
2023-03-28T16:37:27.423Z,29.85
2023-03-28T16:37:37.354Z,30.26
2023-03-28T16:37:47.361Z,30.06
2023-03-28T16:37:57.418Z,29.65
2023-03-28T16:38:07.587Z,29.35
2023-03-28T16:38:17.742Z,29.04
2023-03-28T16:38:27.892Z,28.83
2023-03-28T16:38:38.036Z,28.63
2023-03-28T16:38:48.058Z,28.53
2023-03-28T16:38:58.227Z,28.34
2023-03-28T16:39:08.234Z,28.44
2023-03-28T16:39:18.552Z,28.44
2023-03-28T16:39:28.464Z,28.54
2023-03-28T16:39:38.579Z,28.35
2023-03-28T16:39:49.518Z,28.35
2023-03-28T16:39:59.238Z,28.45
2023-03-28T16:40:09.003Z,28.57
2023-03-28T16:40:19.205Z,28.67
2023-03-28T16:40:29.337Z,28.47
2023-03-28T16:40:39.480Z,28.69
2023-03-28T16:40:50.746Z,28.89
2023-03-28T16:40:59.664Z,28.90
2023-03-28T16:41:10.347Z,29.00
2023-03-28T16:41:19.818Z,29.21
2023-03-28T16:41:30.049Z,29.31
2023-03-28T16:41:40.075Z,29.31
2023-03-28T16:42:00.347Z,29.72
2023-03-28T16:42:10.427Z,30.23
2023-03-28T16:42:20.665Z,30.23
2023-03-28T16:42:30.635Z,29.93
2023-03-28T16:42:40.670Z,29.93
2023-03-28T16:42:50.951Z,29.82
2023-03-28T16:43:01.051Z,29.61
2023-03-28T16:43:11.315Z,29.63
2023-03-28T16:43:21.430Z,29.63
2023-03-28T16:43:31.577Z,29.73
2023-03-28T16:43:41.676Z,29.83
2023-03-28T16:43:51.751Z,30.04
2023-03-28T16:44:01.794Z,30.14
2023-03-28T16:44:11.851Z,30.35
2023-03-28T16:44:22.120Z,30.35
2023-03-28T16:44:32.366Z,30.14
2023-03-28T16:44:42.343Z,29.94
2023-03-28T16:44:52.444Z,29.83
2023-03-28T16:45:03.530Z,29.83
2023-03-28T16:45:12.752Z,29.94
2023-03-28T16:45:22.890Z,29.94
2023-03-28T16:45:33.062Z,29.93
2023-03-28T16:45:43.110Z,30.02
2023-03-28T16:45:53.246Z,30.33
2023-03-28T16:46:12.763Z,30.54
2023-03-28T16:46:24.257Z,30.64
2023-03-28T16:46:33.772Z,30.43
2023-03-28T16:46:44.349Z,30.33
2023-03-28T16:46:53.908Z,30.13
2023-03-28T16:47:03.917Z,30.02
2023-03-28T16:47:14.157Z,30.02
2023-03-28T16:47:33.332Z,29.93
2023-03-28T16:47:44.586Z,29.82
2023-03-28T16:47:54.677Z,29.93
2023-03-28T16:48:05.137Z,29.93
2023-03-28T16:48:14.887Z,30.02
2023-03-28T16:48:24.949Z,30.02
2023-03-28T16:48:35.217Z,29.93
2023-03-28T16:48:45.221Z,29.93
2023-03-28T16:48:55.335Z,29.93
2023-03-28T16:49:06.272Z,29.93
2023-03-28T16:49:15.700Z,30.13
2023-03-28T16:49:25.854Z,30.13
2023-03-28T16:49:35.926Z,29.82
2023-03-28T16:49:46.145Z,29.61
2023-03-28T16:49:56.213Z,29.52
2023-03-28T16:50:06.286Z,29.61
2023-03-28T16:50:16.387Z,30.13
2023-03-28T16:50:26.747Z,30.43
2023-03-28T16:50:37.485Z,30.43
2023-03-28T16:50:46.673Z,30.23
2023-03-28T16:50:56.794Z,30.23
2023-03-28T16:51:06.956Z,30.23
2023-03-28T16:51:17.194Z,30.54
2023-03-28T16:51:27.313Z,30.54
2023-03-28T16:51:47.900Z,30.13
2023-03-28T16:51:57.856Z,30.13
2023-03-28T16:52:07.875Z,30.13
2023-03-28T16:52:18.036Z,30.02
2023-03-28T16:52:29.937Z,29.93
2023-03-28T16:52:38.399Z,29.93
2023-03-28T16:52:48.467Z,30.02
2023-03-28T16:52:58.470Z,29.93
2023-03-28T16:53:08.576Z,29.82
2023-03-28T16:53:18.758Z,29.82
2023-03-28T16:53:29.054Z,29.72
2023-03-28T16:53:38.988Z,29.94
2023-03-28T16:53:49.232Z,29.94
2023-03-28T16:53:59.236Z,29.94
2023-03-28T16:54:09.407Z,29.94
2023-03-28T16:54:19.537Z,29.83
2023-03-28T16:54:29.770Z,29.85
2023-03-28T16:54:39.759Z,29.85
2023-03-28T16:54:49.925Z,29.75
2023-03-28T16:55:00.099Z,29.85
2023-03-28T16:55:10.148Z,29.97
2023-03-28T16:55:20.337Z,30.17
2023-03-28T16:55:30.405Z,30.27
2023-03-28T16:55:40.568Z,30.47
2023-03-28T16:55:50.703Z,30.79
2023-03-28T16:56:00.999Z,30.88
2023-03-28T16:56:10.896Z,30.88
2023-03-28T16:56:21.821Z,30.79
2023-03-28T16:56:31.239Z,30.79
2023-03-28T16:56:41.314Z,30.79
2023-03-28T16:56:52.632Z,30.79
2023-03-28T16:57:01.563Z,30.79
2023-03-28T16:57:11.689Z,30.88
2023-03-28T16:57:31.924Z,31.09
2023-03-28T16:57:42.022Z,31.20
2023-03-28T16:57:52.143Z,31.09
2023-03-28T16:58:02.278Z,30.88
2023-03-28T16:58:12.560Z,30.88
2023-03-28T16:58:22.628Z,30.90
2023-03-28T16:58:32.659Z,30.99
2023-03-28T16:58:42.600Z,30.99
2023-03-28T16:58:52.955Z,31.00
2023-03-28T16:59:03.968Z,30.90
2023-03-28T16:59:13.189Z,31.00
2023-03-28T16:59:23.281Z,31.21
2023-03-28T16:59:33.420Z,31.41
2023-03-28T16:59:43.581Z,31.40
2023-03-28T16:59:53.715Z,31.40
2023-03-28T17:00:14.064Z,31.40
2023-03-28T17:00:24.077Z,31.40
2023-03-28T17:00:34.468Z,31.40
2023-03-28T17:00:44.426Z,31.50
2023-03-28T17:00:54.525Z,31.60
2023-03-28T17:01:05.789Z,32.01
2023-03-28T17:01:14.713Z,32.32
2023-03-28T17:01:25.583Z,32.11
2023-03-28T17:01:34.909Z,31.91
2023-03-28T17:01:45.070Z,31.70
2023-03-28T17:01:55.316Z,31.60
2023-03-28T17:02:15.711Z,31.50
2023-03-28T17:02:25.660Z,31.40
2023-03-28T17:02:35.837Z,31.40
2023-03-28T17:02:45.926Z,31.40
2023-03-28T17:02:56.037Z,31.50
